Auburn, New Hampshire
Current Conditions -  °F | °C
As of 4:53 PM on Sunday 25 Jan 2015 (Local Time) from KMHT Reporting Station
Few Clouds Few Clouds  
Wind Chill: -9°   Ceiling: Unl
Heat Index: -3°   Visibility: 10mi
Dew Point: -16°   Wind: 12mph
Humidity: 36%   Direction: 310°NW
Pressure: 29.77"   Gusts: 22mph
Location:  43°N, 71.35°W
Report Text: KMHT 252153Z 31010G19KT 10SM FEW250 M03/M16 A2977 RMK AO2 SLP100 T10281161
Loading
Personal Weather Stations






























Interactive Weather Map New forecast layout! Learn more

10-Day Weather Forecast

Advertisements
Track Severe Weather on mobile